Crystal Symphony — C6MY5 — position and weather

sailwx.info

Track history (hours):
 
Tides and Currents Weather Stations Pressure Air Temp Water Temp Dewpoint Dewpoint Depression Visibility Wind Speed Wind Dir Waves Ship Positions

Crystal Symphony

Operator: Crystal Cruises

Last reported at 2015-Jul-01 22:23 UTC. Time now 2015-Jul-02 23:12 UTC.
Position N 53°32' W 004°52'.

Length 238 m; draft 8 m.

Type: Passenger vessel. MMSI: 309168000.

Date/timePositionNaut miles runAvg speedWind from/ knotsBaromVisibWave heightAir tempDewpointWater temp
2015-Jul-01 22:23N 53°32' W 004°52'1719.5
2015-Jul-01 21:32N 53°34' W 004°25'1919.0
2015-Jul-01 20:33N 53°34' W 003°53'1918.8
2015-Jul-01 19:33N 53°32' W 003°21'1110.8
2015-Jul-01 18:33N 53°29' W 003°04'5 4.7
2015-Jul-01 17:33N 53°25' W 003°00'0 0.0
2015-Jul-01 16:32N 53°25' W 003°00'0 0.0
2015-Jul-01 15:29N 53°25' W 003°00'0 0.0
2015-Jul-01 14:32N 53°25' W 003°00'0 0.0
2015-Jul-01 13:28N 53°25' W 003°00'0 0.0
2015-Jul-01 12:31N 53°25' W 003°00'0 0.0
2015-Jul-01 11:33N 53°25' W 003°00'0 0.0
2015-Jul-01 10:24N 53°25' W 003°00'0 0.0
2015-Jul-01 09:32N 53°25' W 003°00'0 0.0
2015-Jul-01 08:26N 53°25' W 003°00'0 0.0
2015-Jul-01 07:33N 53°25' W 003°00'6 6.4
2015-Jul-01 06:33N 53°30' W 003°06'1211.6
2015-Jul-01 05:33N 53°31' W 003°25'1211.9
2015-Jul-01 04:33N 53°32' W 003°45'1010.3
2015-Jul-01 03:33N 53°36' W 004°01'1110.4
2015-Jul-01 02:32N 53°40' W 004°18'83 7.0
2015-Jun-30 14:33N 52°33' W 005°39'1010.3
2015-Jun-30 13:33N 52°23' W 005°45'1010.3
2015-Jun-30 12:33N 52°14' W 005°54'10 9.9
2015-Jun-30 11:33N 52°05' W 006°01'1010.3
2015-Jun-30 10:33N 52°00' W 006°15'1010.1
2015-Jun-30 09:33N 51°56' W 006°31'1010.4
2015-Jun-30 08:33N 51°57' W 006°47'1010.1
2015-Jun-30 07:33N 52°05' W 006°57'4 3.9
2015-Jun-30 06:33N 52°09' W 006°58'8 8.2
2015-Jun-30 05:33N 52°01' W 006°56'1414.1
2015-Jun-30 04:33N 51°48' W 006°48'1615.7
2015-Jun-30 03:33N 51°33' W 006°40'1717.1
2015-Jun-30 02:33N 51°17' W 006°30'1717.0
2015-Jun-30 01:33N 51°01' W 006°20'1717.1
2015-Jun-30 00:33N 50°45' W 006°10'1817.3
2015-Jun-29 23:30N 50°28' W 005°60'81 4.7
2015-Jun-29 06:12N 50°06' W 003°58'1617.1
2015-Jun-29 05:16N 50°04' W 003°33'1217.0
2015-Jun-29 04:33N 50°02' W 003°14'5317.1
2015-Jun-29 01:30N 50°11' W 001°54'1819.1
2015-Jun-29 00:33N 50°16' W 001°27'7518.6
2015-Jun-28 20:32N 50°35' E 000°27'1616.4
2015-Jun-28 19:33N 50°43' E 000°48'2316.7
2015-Jun-28 18:12N 50°58' E 001°16'9 0.9
2015-Jun-28 08:20N 51°07' E 001°19'0 0.0
2015-Jun-28 07:32N 51°07' E 001°19'0 0.0
2015-Jun-28 06:25N 51°07' E 001°19'0 0.0
2015-Jun-28 05:19N 51°07' E 001°19'0 0.1
2015-Jun-28 04:33N 51°07' E 001°19'7 6.8
2015-Jun-28 03:33N 51°03' E 001°29'1615.6
2015-Jun-28 02:33N 50°48' E 001°22'1918.5
2015-Jun-28 01:33N 50°33' E 001°06'2020.3
2015-Jun-28 00:33N 50°28' E 000°35'2020.1
2015-Jun-27 23:33N 50°22' E 000°05'2019.9
2015-Jun-27 22:33N 50°17' W 000°26'1919.3
2015-Jun-27 21:33N 50°16' W 000°56'2019.7
2015-Jun-27 20:33N 50°21' W 001°25'2020.1
2015-Jun-27 19:33N 50°26' W 001°56'2116.1
2015-Jun-27 18:17N 50°34' W 002°26'0 0.3
2015-Jun-27 17:32N 50°34' W 002°26'0 0.0
2015-Jun-27 16:31N 50°34' W 002°26'0 0.0
2015-Jun-27 15:31N 50°34' W 002°26'0 0.0
2015-Jun-27 14:33N 50°34' W 002°26'0 0.0
2015-Jun-27 13:30N 50°34' W 002°26'0 0.0
2015-Jun-27 12:32N 50°34' W 002°26'0 0.0
2015-Jun-27 11:32N 50°34' W 002°26'0 0.0
2015-Jun-27 10:32N 50°34' W 002°26'0 0.0
2015-Jun-27 08:31N 50°34' W 002°26'13 2.4
2015-Jun-27 03:11N 50°23' W 002°36'812.4
2015-Jun-27 02:34N 50°20' W 002°47'1312.5
2015-Jun-27 01:34N 50°16' W 003°05'1313.1
2015-Jun-27 00:33N 50°10' W 003°24'119 8.3
2015-Jun-26 10:12N 51°17' W 005°60'3813.4
2015-Jun-26 07:20N 51°55' W 005°53'1113.7
2015-Jun-26 06:33N 52°05' W 005°50'1313.3
2015-Jun-26 05:33N 52°18' W 005°47'114 4.0
2015-Jun-25 01:21N 54°11' W 005°24'1214.5
2015-Jun-25 00:33N 54°22' W 005°18'1515.1
2015-Jun-24 23:33N 54°37' W 005°19'1514.9
2015-Jun-24 22:33N 54°52' W 005°21'1413.7
2015-Jun-24 21:33N 55°06' W 005°16'40 2.6
2015-Jun-24 06:03N 55°44' W 004°60'2714.4
2015-Jun-24 04:12N 55°19' W 005°17'1517.6
2015-Jun-24 03:22N 55°14' W 005°41'1316.0
2015-Jun-24 02:33N 55°17' W 006°02'1616.2
2015-Jun-24 01:34N 55°25' W 006°28'1717.2
2015-Jun-24 00:34N 55°32' W 006°55'1917.2
2015-Jun-23 23:28N 55°42' W 007°23'  
Track history (hours):
 
Tides and Currents Weather Stations Pressure Air Temp Water Temp Dewpoint Dewpoint Depression Visibility Wind Speed Wind Dir Waves Ship Positions

Crystal Symphony

Operator: Crystal Cruises

Last reported at 2015-Jul-01 22:23 UTC. Time now 2015-Jul-02 23:12 UTC.
Position N 53°32' W 004°52'.

Length 238 m; draft 8 m.

Type: Passenger vessel. MMSI: 309168000.

Date/timePositionNaut miles runAvg speedWind from/ knotsBaromVisibWave heightAir tempDewpointWater temp
2015-Jul-01 22:23N 53°32' W 004°52'1719.5
2015-Jul-01 21:32N 53°34' W 004°25'1919.0
2015-Jul-01 20:33N 53°34' W 003°53'1918.8
2015-Jul-01 19:33N 53°32' W 003°21'1110.8
2015-Jul-01 18:33N 53°29' W 003°04'5 4.7
2015-Jul-01 17:33N 53°25' W 003°00'0 0.0
2015-Jul-01 16:32N 53°25' W 003°00'0 0.0
2015-Jul-01 15:29N 53°25' W 003°00'0 0.0
2015-Jul-01 14:32N 53°25' W 003°00'0 0.0
2015-Jul-01 13:28N 53°25' W 003°00'0 0.0
2015-Jul-01 12:31N 53°25' W 003°00'0 0.0
2015-Jul-01 11:33N 53°25' W 003°00'0 0.0
2015-Jul-01 10:24N 53°25' W 003°00'0 0.0
2015-Jul-01 09:32N 53°25' W 003°00'0 0.0
2015-Jul-01 08:26N 53°25' W 003°00'0 0.0
2015-Jul-01 07:33N 53°25' W 003°00'6 6.4
2015-Jul-01 06:33N 53°30' W 003°06'1211.6
2015-Jul-01 05:33N 53°31' W 003°25'1211.9
2015-Jul-01 04:33N 53°32' W 003°45'1010.3
2015-Jul-01 03:33N 53°36' W 004°01'1110.4
2015-Jul-01 02:32N 53°40' W 004°18'83 7.0
2015-Jun-30 14:33N 52°33' W 005°39'1010.3
2015-Jun-30 13:33N 52°23' W 005°45'1010.3
2015-Jun-30 12:33N 52°14' W 005°54'10 9.9
2015-Jun-30 11:33N 52°05' W 006°01'1010.3
2015-Jun-30 10:33N 52°00' W 006°15'1010.1
2015-Jun-30 09:33N 51°56' W 006°31'1010.4
2015-Jun-30 08:33N 51°57' W 006°47'1010.1
2015-Jun-30 07:33N 52°05' W 006°57'4 3.9
2015-Jun-30 06:33N 52°09' W 006°58'8 8.2
2015-Jun-30 05:33N 52°01' W 006°56'1414.1
2015-Jun-30 04:33N 51°48' W 006°48'1615.7
2015-Jun-30 03:33N 51°33' W 006°40'1717.1
2015-Jun-30 02:33N 51°17' W 006°30'1717.0
2015-Jun-30 01:33N 51°01' W 006°20'1717.1
2015-Jun-30 00:33N 50°45' W 006°10'1817.3
2015-Jun-29 23:30N 50°28' W 005°60'81 4.7
2015-Jun-29 06:12N 50°06' W 003°58'1617.1
2015-Jun-29 05:16N 50°04' W 003°33'1217.0
2015-Jun-29 04:33N 50°02' W 003°14'5317.1
2015-Jun-29 01:30N 50°11' W 001°54'1819.1
2015-Jun-29 00:33N 50°16' W 001°27'7518.6
2015-Jun-28 20:32N 50°35' E 000°27'1616.4
2015-Jun-28 19:33N 50°43' E 000°48'2316.7
2015-Jun-28 18:12N 50°58' E 001°16'9 0.9
2015-Jun-28 08:20N 51°07' E 001°19'0 0.0
2015-Jun-28 07:32N 51°07' E 001°19'0 0.0
2015-Jun-28 06:25N 51°07' E 001°19'0 0.0
2015-Jun-28 05:19N 51°07' E 001°19'0 0.1
2015-Jun-28 04:33N 51°07' E 001°19'7 6.8
2015-Jun-28 03:33N 51°03' E 001°29'1615.6
2015-Jun-28 02:33N 50°48' E 001°22'1918.5
2015-Jun-28 01:33N 50°33' E 001°06'2020.3
2015-Jun-28 00:33N 50°28' E 000°35'2020.1
2015-Jun-27 23:33N 50°22' E 000°05'2019.9
2015-Jun-27 22:33N 50°17' W 000°26'1919.3
2015-Jun-27 21:33N 50°16' W 000°56'2019.7
2015-Jun-27 20:33N 50°21' W 001°25'2020.1
2015-Jun-27 19:33N 50°26' W 001°56'2116.1
2015-Jun-27 18:17N 50°34' W 002°26'0 0.3
2015-Jun-27 17:32N 50°34' W 002°26'0 0.0
2015-Jun-27 16:31N 50°34' W 002°26'0 0.0
2015-Jun-27 15:31N 50°34' W 002°26'0 0.0
2015-Jun-27 14:33N 50°34' W 002°26'0 0.0
2015-Jun-27 13:30N 50°34' W 002°26'0 0.0
2015-Jun-27 12:32N 50°34' W 002°26'0 0.0
2015-Jun-27 11:32N 50°34' W 002°26'0 0.0
2015-Jun-27 10:32N 50°34' W 002°26'0 0.0
2015-Jun-27 08:31N 50°34' W 002°26'13 2.4
2015-Jun-27 03:11N 50°23' W 002°36'812.4
2015-Jun-27 02:34N 50°20' W 002°47'1312.5
2015-Jun-27 01:34N 50°16' W 003°05'1313.1
2015-Jun-27 00:33N 50°10' W 003°24'119 8.3
2015-Jun-26 10:12N 51°17' W 005°60'3813.4
2015-Jun-26 07:20N 51°55' W 005°53'1113.7
2015-Jun-26 06:33N 52°05' W 005°50'1313.3
2015-Jun-26 05:33N 52°18' W 005°47'114 4.0
2015-Jun-25 01:21N 54°11' W 005°24'1214.5
2015-Jun-25 00:33N 54°22' W 005°18'1515.1
2015-Jun-24 23:33N 54°37' W 005°19'1514.9
2015-Jun-24 22:33N 54°52' W 005°21'1413.7
2015-Jun-24 21:33N 55°06' W 005°16'40 2.6
2015-Jun-24 06:03N 55°44' W 004°60'2714.4
2015-Jun-24 04:12N 55°19' W 005°17'1517.6
2015-Jun-24 03:22N 55°14' W 005°41'1316.0
2015-Jun-24 02:33N 55°17' W 006°02'1616.2
2015-Jun-24 01:34N 55°25' W 006°28'1717.2
2015-Jun-24 00:34N 55°32' W 006°55'1917.2
2015-Jun-23 23:28N 55°42' W 007°23'  

Dump ship's entire track history